createdAt,value
2019-02-10T00:06:32.787Z,4.50
2019-02-10T00:09:01.184Z,4.48
2019-02-10T00:11:29.615Z,4.45
2019-02-10T00:13:58.004Z,4.44
2019-02-10T00:16:28.228Z,4.43
2019-02-10T00:18:56.649Z,4.42
2019-02-10T00:21:25.043Z,4.41
2019-02-10T00:23:53.447Z,4.41
2019-02-10T00:26:22.094Z,4.40
2019-02-10T00:28:50.489Z,4.40
2019-02-10T00:31:18.882Z,4.39
2019-02-10T00:33:47.304Z,4.41
2019-02-10T00:36:15.696Z,4.40
2019-02-10T00:38:44.088Z,4.37
2019-02-10T00:41:12.515Z,4.36
2019-02-10T00:43:40.915Z,4.34
2019-02-10T00:46:09.342Z,4.34
2019-02-10T00:48:37.765Z,4.34
2019-02-10T00:51:06.147Z,4.33
2019-02-10T00:53:34.584Z,4.29
2019-02-10T00:56:03.104Z,4.28
2019-02-10T00:58:31.525Z,4.25
2019-02-10T01:00:59.908Z,4.24
2019-02-10T01:03:28.338Z,4.23
2019-02-10T01:05:56.734Z,4.21
2019-02-10T01:08:25.262Z,4.17
2019-02-10T01:10:53.694Z,4.14
2019-02-10T01:13:22.093Z,4.13
2019-02-10T01:15:50.555Z,4.10
2019-02-10T01:18:19.034Z,4.08
2019-02-10T01:20:47.424Z,4.07
2019-02-10T01:23:15.817Z,4.08
2019-02-10T01:25:44.232Z,4.06
2019-02-10T01:28:12.628Z,4.05
2019-02-10T01:30:41.463Z,4.03
2019-02-10T01:33:10.054Z,4.01
2019-02-10T01:35:38.444Z,3.99
2019-02-10T01:38:06.838Z,3.99
2019-02-10T01:40:35.348Z,3.96
2019-02-10T01:43:03.739Z,3.92
2019-02-10T01:45:32.148Z,3.87
2019-02-10T01:48:00.575Z,3.83
2019-02-10T01:50:28.971Z,3.80
2019-02-10T01:52:57.366Z,3.77
2019-02-10T01:55:25.821Z,3.73
2019-02-10T01:57:54.218Z,3.72
2019-02-10T02:00:22.677Z,3.71
2019-02-10T02:02:51.210Z,3.70
2019-02-10T02:05:19.606Z,3.67
2019-02-10T02:07:48.004Z,3.62
2019-02-10T02:10:16.955Z,3.56
2019-02-10T02:12:45.346Z,3.51
2019-02-10T02:15:16.529Z,3.49
2019-02-10T02:17:44.941Z,3.48
2019-02-10T02:20:13.869Z,3.48
2019-02-10T02:22:42.324Z,3.48
2019-02-10T02:25:12.205Z,3.47
2019-02-10T02:27:40.844Z,3.45
2019-02-10T02:30:11.940Z,3.46
2019-02-10T02:32:40.455Z,3.48
2019-02-10T02:35:09.104Z,3.49
2019-02-10T02:37:37.564Z,3.51
2019-02-10T02:40:08.434Z,3.54
2019-02-10T02:42:36.828Z,3.55
2019-02-10T02:45:07.990Z,3.54
2019-02-10T02:47:36.400Z,3.55
2019-02-10T02:50:05.942Z,3.54
2019-02-10T02:52:34.329Z,3.55
2019-02-10T02:55:02.790Z,3.54
2019-02-10T02:57:31.179Z,3.54
2019-02-10T02:59:59.562Z,3.54
2019-02-10T03:02:28.365Z,3.54
2019-02-10T03:04:56.762Z,3.56
2019-02-10T03:07:25.161Z,3.58
2019-02-10T03:09:53.742Z,3.60
2019-02-10T03:12:22.145Z,3.62
2019-02-10T03:14:50.525Z,3.65
2019-02-10T03:17:19.244Z,3.63
2019-02-10T03:19:47.636Z,3.63
2019-02-10T03:22:16.092Z,3.63
2019-02-10T03:24:44.687Z,3.62
2019-02-10T03:27:13.079Z,3.60
2019-02-10T03:29:41.468Z,3.59
2019-02-10T03:32:09.898Z,3.56
2019-02-10T03:34:38.280Z,3.54
2019-02-10T03:37:06.674Z,3.53
2019-02-10T03:39:35.098Z,3.51
2019-02-10T03:42:03.560Z,3.52
2019-02-10T03:44:31.955Z,3.53
2019-02-10T03:47:00.518Z,3.52
2019-02-10T03:49:28.916Z,3.53
2019-02-10T03:51:57.314Z,3.51
2019-02-10T03:54:25.725Z,3.51
2019-02-10T03:56:54.140Z,3.53
2019-02-10T03:59:22.532Z,3.53
2019-02-10T04:01:50.965Z,3.53
2019-02-10T04:04:19.358Z,3.55
2019-02-10T04:06:47.750Z,3.53
2019-02-10T04:09:16.282Z,3.52
2019-02-10T04:11:44.676Z,3.53
2019-02-10T04:14:13.064Z,3.53
2019-02-10T04:16:41.679Z,3.53
2019-02-10T04:19:10.123Z,3.54
2019-02-10T04:21:38.514Z,3.52
2019-02-10T04:24:07.111Z,3.49
2019-02-10T04:26:35.522Z,3.50
2019-02-10T04:29:03.909Z,3.51
2019-02-10T04:31:32.456Z,3.51
2019-02-10T04:34:00.839Z,3.53
2019-02-10T04:36:29.230Z,3.53
2019-02-10T04:38:57.648Z,3.52
2019-02-10T04:41:26.054Z,3.52
2019-02-10T04:43:54.454Z,3.52
2019-02-10T04:46:23.022Z,3.50
2019-02-10T04:48:51.417Z,3.48
2019-02-10T04:51:19.809Z,3.46
2019-02-10T04:53:48.250Z,3.46
2019-02-10T04:56:17.184Z,3.46
2019-02-10T04:58:45.570Z,3.46
2019-02-10T05:01:14.099Z,3.47
2019-02-10T05:03:42.510Z,3.49
2019-02-10T05:06:10.880Z,3.49
2019-02-10T05:08:39.338Z,3.50
2019-02-10T05:11:07.766Z,3.51
2019-02-10T05:13:36.146Z,3.50
2019-02-10T05:16:04.632Z,3.48
2019-02-10T05:18:33.195Z,3.49
2019-02-10T05:21:01.588Z,3.50
2019-02-10T05:23:30.000Z,3.53
2019-02-10T05:25:58.400Z,3.57
2019-02-10T05:28:26.819Z,3.60
2019-02-10T05:30:55.271Z,3.61
2019-02-10T05:33:23.661Z,3.61
2019-02-10T05:35:52.059Z,3.62
2019-02-10T05:38:20.479Z,3.62
2019-02-10T05:40:48.882Z,3.60
2019-02-10T05:43:17.264Z,3.59
2019-02-10T05:45:45.718Z,3.57
2019-02-10T05:48:14.103Z,3.53
2019-02-10T05:50:42.495Z,3.46
2019-02-10T05:53:12.454Z,3.41
2019-02-10T05:55:40.850Z,3.37
2019-02-10T05:58:09.239Z,3.37
2019-02-10T06:00:38.076Z,3.36
2019-02-10T06:03:06.489Z,3.35
2019-02-10T06:05:34.867Z,3.39
2019-02-10T06:08:03.405Z,3.40
2019-02-10T06:10:31.816Z,3.42
2019-02-10T06:13:00.195Z,3.45
2019-02-10T06:15:28.648Z,3.49
2019-02-10T06:17:57.037Z,3.51
2019-02-10T06:20:25.446Z,3.51
2019-02-10T06:22:53.853Z,3.47
2019-02-10T06:25:22.258Z,3.42
2019-02-10T06:27:50.650Z,3.40
2019-02-10T06:30:19.169Z,3.39
2019-02-10T06:32:47.534Z,3.40
2019-02-10T06:35:15.930Z,3.39
2019-02-10T06:37:45.241Z,3.38
2019-02-10T06:40:13.651Z,3.33
2019-02-10T06:42:42.047Z,3.30
2019-02-10T06:45:11.234Z,3.29
2019-02-10T06:47:39.634Z,3.26
2019-02-10T06:50:08.696Z,3.21
2019-02-10T06:52:37.119Z,3.19
2019-02-10T06:55:07.842Z,3.16
2019-02-10T06:57:36.246Z,3.16
2019-02-10T07:00:14.211Z,3.17
2019-02-10T07:03:19.235Z,3.20
2019-02-10T07:05:47.686Z,3.21
2019-02-10T07:08:16.076Z,3.26
2019-02-10T07:10:44.481Z,3.30
2019-02-10T07:13:16.279Z,3.40
2019-02-10T07:16:20.948Z,3.49
2019-02-10T07:19:25.694Z,3.63
2019-02-10T07:21:54.094Z,3.76
2019-02-10T07:24:35.557Z,3.84
2019-02-10T07:27:06.996Z,3.89
2019-02-10T07:29:59.907Z,3.89
2019-02-10T07:32:30.833Z,3.85
2019-02-10T07:35:35.733Z,3.82
2019-02-10T07:38:12.755Z,3.80
2019-02-10T07:40:59.161Z,3.81
2019-02-10T07:43:39.972Z,3.80
2019-02-10T07:46:17.477Z,3.82
2019-02-10T07:49:13.107Z,3.83
2019-02-10T07:52:19.320Z,3.88
2019-02-10T07:55:19.174Z,3.90
2019-02-10T07:57:59.612Z,3.90
2019-02-10T08:00:37.612Z,3.90
2019-02-10T08:03:20.899Z,3.89
2019-02-10T08:05:59.818Z,3.87
2019-02-10T08:08:46.885Z,3.88
2019-02-10T08:11:37.953Z,3.93
2019-02-10T08:14:42.973Z,3.98
2019-02-10T08:17:30.836Z,4.06
2019-02-10T08:20:17.237Z,4.17
2019-02-10T08:22:51.697Z,4.23
2019-02-10T08:25:37.936Z,4.31
2019-02-10T08:28:32.011Z,4.36
2019-02-10T08:31:23.047Z,4.45
2019-02-10T08:34:00.383Z,4.56
2019-02-10T08:36:31.862Z,4.70
2019-02-10T08:39:14.990Z,4.83
2019-02-10T08:41:58.651Z,4.98
2019-02-10T08:44:32.907Z,5.14
2019-02-10T08:47:04.379Z,5.32
2019-02-10T08:49:44.039Z,5.49
2019-02-10T08:52:18.541Z,5.63
2019-02-10T08:54:46.943Z,5.79
2019-02-10T08:57:15.335Z,5.94
2019-02-10T08:59:43.890Z,6.02
2019-02-10T09:02:12.352Z,6.07
2019-02-10T09:04:40.743Z,6.09
2019-02-10T09:07:09.400Z,6.08
2019-02-10T09:09:37.791Z,6.06
2019-02-10T09:12:06.196Z,6.02
2019-02-10T09:14:34.614Z,5.98
2019-02-10T09:17:03.026Z,6.00
2019-02-10T09:19:31.415Z,5.99
2019-02-10T09:21:59.845Z,6.01
2019-02-10T09:24:28.237Z,6.02
2019-02-10T09:26:56.698Z,6.07
2019-02-10T09:29:25.243Z,6.12
2019-02-10T09:31:53.640Z,6.16
2019-02-10T09:34:22.035Z,6.19
2019-02-10T09:36:50.457Z,6.22
2019-02-10T09:39:18.847Z,6.26
2019-02-10T09:41:47.252Z,6.31
2019-02-10T09:44:15.827Z,6.38
2019-02-10T09:46:44.228Z,6.45
2019-02-10T09:49:12.631Z,6.53
2019-02-10T09:51:41.088Z,6.59
2019-02-10T09:54:09.545Z,6.65
2019-02-10T09:56:37.968Z,6.73
2019-02-10T09:59:06.505Z,6.79
2019-02-10T10:01:34.910Z,6.80
2019-02-10T10:04:03.308Z,6.84
2019-02-10T10:06:31.763Z,6.86
2019-02-10T10:09:00.165Z,6.91
2019-02-10T10:11:28.561Z,7.00
2019-02-10T10:13:57.390Z,7.09
2019-02-10T10:16:25.782Z,7.19
2019-02-10T10:18:54.171Z,7.24
2019-02-10T10:21:22.628Z,7.32
2019-02-10T10:23:51.004Z,7.36
2019-02-10T10:26:19.403Z,7.38
2019-02-10T10:28:47.819Z,7.44
2019-02-10T10:31:16.289Z,7.45
2019-02-10T10:33:44.730Z,7.47
2019-02-10T10:36:13.162Z,7.56
2019-02-10T10:38:41.625Z,7.65
2019-02-10T10:41:10.067Z,7.72
2019-02-10T10:43:38.703Z,7.75
2019-02-10T10:46:07.176Z,7.76
2019-02-10T10:48:35.567Z,7.81
2019-02-10T10:51:04.091Z,7.85
2019-02-10T10:53:32.490Z,7.91
2019-02-10T10:56:00.951Z,7.95
2019-02-10T10:58:29.629Z,8.00
2019-02-10T11:00:58.020Z,8.04
2019-02-10T11:03:26.423Z,8.09
2019-02-10T11:05:55.316Z,8.13
2019-02-10T11:08:23.758Z,8.15
2019-02-10T11:10:52.168Z,8.17
2019-02-10T11:13:20.726Z,8.19
2019-02-10T11:15:49.115Z,8.21
2019-02-10T11:18:17.584Z,8.22
2019-02-10T11:20:46.284Z,8.23
2019-02-10T11:23:14.678Z,8.26
2019-02-10T11:25:43.095Z,8.34
2019-02-10T11:28:11.922Z,8.42
2019-02-10T11:30:40.382Z,8.50
2019-02-10T11:33:08.819Z,8.58
2019-02-10T11:35:37.665Z,8.66
2019-02-10T11:38:06.063Z,8.66
2019-02-10T11:40:34.458Z,8.66
2019-02-10T11:43:03.005Z,8.69
2019-02-10T11:45:31.466Z,8.72
2019-02-10T11:47:59.863Z,8.76
2019-02-10T11:50:28.283Z,8.81
2019-02-10T11:52:56.667Z,8.89
2019-02-10T11:55:25.103Z,9.05
2019-02-10T11:57:53.889Z,9.29
2019-02-10T12:00:22.675Z,9.55
2019-02-10T12:02:51.064Z,9.81
2019-02-10T12:05:19.637Z,10.01
2019-02-10T12:07:48.039Z,10.16
2019-02-10T12:10:16.531Z,10.29
2019-02-10T12:12:45.381Z,10.41
2019-02-10T12:15:17.035Z,10.48
2019-02-10T12:17:45.429Z,10.54
2019-02-10T12:20:16.471Z,10.61
2019-02-10T12:22:50.319Z,10.72
2019-02-10T12:25:16.838Z,10.78
2019-02-10T12:27:46.744Z,10.83
2019-02-10T12:30:16.177Z,10.85
2019-02-10T12:32:44.572Z,10.81
2019-02-10T12:35:13.578Z,10.76
2019-02-10T12:37:41.974Z,10.73
2019-02-10T12:40:11.998Z,10.73
2019-02-10T12:42:42.100Z,10.70
2019-02-10T12:45:12.463Z,10.71
2019-02-10T12:47:40.893Z,10.76
2019-02-10T12:50:14.307Z,10.83
2019-02-10T12:52:42.719Z,10.95
2019-02-10T12:55:12.154Z,11.09
2019-02-10T12:57:40.576Z,11.19
2019-02-10T13:00:18.131Z,11.27
2019-02-10T13:02:46.875Z,11.30
2019-02-10T13:05:15.272Z,11.36
2019-02-10T13:07:43.696Z,11.40
2019-02-10T13:10:18.295Z,11.47
2019-02-10T13:12:46.717Z,11.55
2019-02-10T13:15:15.213Z,11.68
2019-02-10T13:17:43.878Z,11.77
2019-02-10T13:20:13.447Z,11.79
2019-02-10T13:22:41.858Z,11.77
2019-02-10T13:25:14.975Z,11.73
2019-02-10T13:27:43.542Z,11.72
2019-02-10T13:30:18.806Z,11.72
2019-02-10T13:32:47.444Z,11.74
2019-02-10T13:35:15.916Z,11.77
2019-02-10T13:37:44.828Z,11.80
2019-02-10T13:40:22.391Z,11.78
2019-02-10T13:42:51.084Z,11.76
2019-02-10T13:45:19.496Z,11.82
2019-02-10T13:47:47.981Z,11.97
2019-02-10T13:50:20.112Z,12.14
2019-02-10T13:52:48.576Z,12.30
2019-02-10T13:55:17.559Z,12.44
2019-02-10T13:57:46.175Z,12.46
2019-02-10T14:00:17.619Z,12.47
2019-02-10T14:02:46.016Z,12.57
2019-02-10T14:05:14.509Z,12.66
2019-02-10T14:07:42.902Z,12.69
2019-02-10T14:10:24.923Z,12.68
2019-02-10T14:12:47.281Z,12.56
2019-02-10T14:15:19.749Z,12.42
2019-02-10T14:17:48.123Z,12.30
2019-02-10T14:20:20.347Z,12.14
2019-02-10T14:22:48.744Z,12.03
2019-02-10T14:25:18.106Z,11.94
2019-02-10T14:27:46.697Z,11.92
2019-02-10T14:30:18.147Z,11.86
2019-02-10T14:32:46.545Z,11.82
2019-02-10T14:35:15.217Z,11.83
2019-02-10T14:37:43.690Z,11.93
2019-02-10T14:40:12.726Z,12.19
2019-02-10T14:42:41.223Z,12.57
2019-02-10T14:45:14.549Z,12.92
2019-02-10T14:47:43.063Z,13.18
2019-02-10T14:50:15.905Z,13.42
2019-02-10T14:52:44.297Z,13.59
2019-02-10T14:55:12.780Z,13.75
2019-02-10T14:57:41.205Z,13.71
2019-02-10T15:00:12.613Z,13.46
2019-02-10T15:02:43.383Z,13.26
2019-02-10T15:05:11.739Z,13.07
2019-02-10T15:07:41.650Z,12.93
2019-02-10T15:10:12.977Z,12.83
2019-02-10T15:12:41.430Z,12.78
2019-02-10T15:15:11.469Z,12.70
2019-02-10T15:17:39.874Z,12.64
2019-02-10T15:20:10.202Z,12.55
2019-02-10T15:22:38.607Z,12.47
2019-02-10T15:25:10.020Z,12.41
2019-02-10T15:27:38.448Z,12.35
2019-02-10T15:30:09.955Z,12.27
2019-02-10T15:32:38.355Z,12.19
2019-02-10T15:35:06.966Z,12.13
2019-02-10T15:37:35.364Z,12.05
2019-02-10T15:40:05.410Z,12.03
2019-02-10T15:42:33.829Z,11.99
2019-02-10T15:45:02.335Z,11.94
2019-02-10T15:47:30.732Z,11.93
2019-02-10T15:49:59.198Z,11.90
2019-02-10T15:52:27.615Z,11.92
2019-02-10T15:54:56.019Z,12.11
2019-02-10T15:57:24.457Z,12.21
2019-02-10T15:59:52.937Z,12.21
2019-02-10T16:02:21.421Z,12.20
2019-02-10T16:04:49.860Z,12.19
2019-02-10T16:07:18.257Z,12.26
2019-02-10T16:09:46.721Z,12.29
2019-02-10T16:12:15.654Z,12.30
2019-02-10T16:14:44.053Z,12.33
2019-02-10T16:17:12.457Z,12.35
2019-02-10T16:19:41.015Z,12.33
2019-02-10T16:22:09.419Z,12.28
2019-02-10T16:24:37.843Z,12.20
2019-02-10T16:27:06.274Z,12.24
2019-02-10T16:29:34.685Z,12.21
2019-02-10T16:32:03.087Z,12.19
2019-02-10T16:34:31.717Z,12.17
2019-02-10T16:37:00.124Z,12.16
2019-02-10T16:39:28.523Z,12.18
2019-02-10T16:41:56.946Z,12.20
2019-02-10T16:44:25.365Z,12.22
2019-02-10T16:46:53.779Z,12.25
2019-02-10T16:49:22.242Z,12.29
2019-02-10T16:51:50.637Z,12.39
2019-02-10T16:54:19.033Z,12.44
2019-02-10T16:56:47.594Z,12.43
2019-02-10T16:59:15.959Z,12.49
2019-02-10T17:01:44.369Z,12.45
2019-02-10T17:04:12.821Z,12.31
2019-02-10T17:06:41.223Z,12.17
2019-02-10T17:09:09.918Z,12.07
2019-02-10T17:11:38.325Z,11.99
2019-02-10T17:14:06.760Z,11.93
2019-02-10T17:16:35.182Z,11.86
2019-02-10T17:19:03.595Z,11.80
2019-02-10T17:21:31.993Z,11.75
2019-02-10T17:24:00.479Z,11.70
2019-02-10T17:26:28.921Z,11.65
2019-02-10T17:28:57.326Z,11.59
2019-02-10T17:31:25.725Z,11.55
2019-02-10T17:33:54.170Z,11.54
2019-02-10T17:36:22.596Z,11.50
2019-02-10T17:38:50.992Z,11.40
2019-02-10T17:41:22.802Z,11.31
2019-02-10T17:43:50.797Z,11.19
2019-02-10T17:46:19.203Z,11.12
2019-02-10T17:48:47.755Z,11.07
2019-02-10T17:51:16.158Z,11.02
2019-02-10T17:53:44.640Z,10.95
2019-02-10T17:56:13.065Z,10.88
2019-02-10T17:58:41.467Z,10.82
2019-02-10T18:01:09.871Z,10.77
2019-02-10T18:03:38.641Z,10.74
2019-02-10T18:06:07.048Z,10.70
2019-02-10T18:08:35.451Z,10.67
2019-02-10T18:11:03.917Z,10.66
2019-02-10T18:13:32.326Z,10.61
2019-02-10T18:16:02.380Z,10.58
2019-02-10T18:18:32.455Z,10.52
2019-02-10T18:21:05.309Z,10.46
2019-02-10T18:23:35.400Z,10.38
2019-02-10T18:26:08.464Z,10.29
2019-02-10T18:28:50.191Z,10.24
2019-02-10T18:31:20.257Z,10.20
2019-02-10T18:33:50.302Z,10.17
2019-02-10T18:36:36.715Z,10.16
2019-02-10T18:39:07.997Z,10.16
2019-02-10T18:41:41.145Z,10.15
2019-02-10T18:44:23.406Z,10.09
2019-02-10T18:46:53.515Z,9.44
2019-02-10T18:49:26.035Z,8.96
2019-02-10T18:51:56.238Z,8.69
2019-02-10T18:54:26.709Z,8.29
2019-02-10T18:57:05.621Z,7.76
2019-02-10T18:59:47.621Z,7.28
2019-02-10T19:02:26.927Z,6.85
2019-02-10T19:05:06.273Z,6.64
2019-02-10T19:07:39.343Z,6.53
2019-02-10T19:10:22.045Z,6.37
2019-02-10T19:12:54.779Z,6.25
2019-02-10T19:15:27.530Z,6.17
2019-02-10T19:18:00.025Z,6.08
2019-02-10T19:20:33.445Z,6.01
2019-02-10T19:23:04.203Z,5.83
2019-02-10T19:25:40.440Z,5.72
2019-02-10T19:28:10.472Z,5.67
2019-02-10T19:30:57.147Z,5.71
2019-02-10T19:33:43.170Z,5.77
2019-02-10T19:36:31.715Z,5.81
2019-02-10T19:39:16.495Z,5.83
2019-02-10T19:41:46.625Z,5.85
2019-02-10T19:44:33.006Z,5.87
2019-02-10T19:47:18.321Z,5.90
2019-02-10T19:50:07.687Z,5.89
2019-02-10T19:52:43.896Z,5.89
2019-02-10T19:55:13.927Z,5.88
2019-02-10T19:57:44.017Z,5.89
2019-02-10T20:00:16.911Z,5.86
2019-02-10T20:02:52.727Z,5.80
2019-02-10T20:05:31.688Z,5.75
2019-02-10T20:08:17.616Z,5.73
2019-02-10T20:10:50.378Z,5.73
2019-02-10T20:13:38.432Z,5.70
2019-02-10T20:16:08.508Z,5.67
2019-02-10T20:18:41.299Z,5.64
2019-02-10T20:21:11.348Z,5.65
2019-02-10T20:23:53.677Z,5.65
2019-02-10T20:29:21.084Z,5.66
2019-02-10T20:31:56.964Z,5.66
2019-02-10T20:34:32.797Z,5.70
2019-02-10T20:37:05.622Z,5.69
2019-02-10T20:39:35.666Z,5.75
2019-02-10T20:42:20.788Z,5.75
2019-02-10T20:45:08.966Z,5.73
2019-02-10T20:47:39.231Z,5.71
2019-02-10T20:50:27.707Z,5.64
2019-02-10T20:53:13.925Z,5.63
2019-02-10T20:55:43.963Z,5.62
2019-02-10T20:58:14.013Z,5.61
2019-02-10T21:00:47.002Z,5.63
2019-02-10T21:03:23.251Z,5.64
2019-02-10T21:05:56.205Z,5.64
2019-02-10T21:08:28.661Z,5.66
2019-02-10T21:11:10.839Z,5.66
2019-02-10T21:13:40.901Z,5.69
2019-02-10T21:16:16.893Z,5.75
2019-02-10T21:18:46.925Z,5.84
2019-02-10T21:21:28.965Z,5.96
2019-02-10T21:24:04.795Z,6.05
2019-02-10T21:26:38.279Z,6.11
2019-02-10T21:29:17.411Z,6.14
2019-02-10T21:34:34.891Z,6.08
2019-02-10T21:37:04.995Z,6.08
2019-02-10T21:39:40.659Z,6.06
2019-02-10T21:42:13.706Z,6.01
2019-02-10T21:44:46.563Z,5.99
2019-02-10T21:47:26.086Z,5.97
2019-02-10T21:49:54.481Z,6.02
2019-02-10T21:52:22.888Z,6.08
2019-02-10T21:54:51.457Z,6.15
2019-02-10T21:57:19.878Z,6.18
2019-02-10T21:59:48.335Z,6.20
2019-02-10T22:02:16.763Z,6.22
2019-02-10T22:04:45.161Z,6.20
2019-02-10T22:07:13.602Z,6.18
2019-02-10T22:09:42.103Z,6.20
2019-02-10T22:12:10.502Z,6.20
2019-02-10T22:14:38.928Z,6.17
2019-02-10T22:17:07.424Z,6.18
2019-02-10T22:19:35.822Z,6.19
2019-02-10T22:22:04.288Z,6.22
2019-02-10T22:24:32.733Z,6.23
2019-02-10T22:27:01.199Z,6.27
2019-02-10T22:29:29.594Z,6.28
2019-02-10T22:31:59.361Z,6.28
2019-02-10T22:34:27.851Z,6.28
2019-02-10T22:36:56.276Z,6.30
2019-02-10T22:39:24.826Z,6.30
2019-02-10T22:41:53.219Z,6.30
2019-02-10T22:44:21.609Z,6.30
2019-02-10T22:46:50.171Z,6.28
2019-02-10T22:49:18.583Z,6.29
2019-02-10T22:51:46.978Z,6.32
2019-02-10T22:54:15.503Z,6.34
2019-02-10T22:56:43.898Z,6.34
2019-02-10T22:59:12.299Z,6.35
2019-02-10T23:01:40.893Z,6.37
2019-02-10T23:04:09.360Z,6.41
2019-02-10T23:06:37.746Z,6.48
2019-02-10T23:09:09.574Z,6.48
2019-02-10T23:11:37.967Z,6.55
2019-02-10T23:14:06.363Z,6.58
2019-02-10T23:16:34.909Z,6.59
2019-02-10T23:19:03.299Z,6.60
2019-02-10T23:21:31.694Z,6.61
2019-02-10T23:24:00.246Z,6.58
2019-02-10T23:26:28.725Z,6.58
2019-02-10T23:28:57.192Z,6.56
2019-02-10T23:31:25.791Z,6.57
2019-02-10T23:33:54.187Z,6.58
2019-02-10T23:36:22.579Z,6.60
2019-02-10T23:38:51.342Z,6.67
2019-02-10T23:41:19.734Z,6.69
2019-02-10T23:43:48.130Z,6.68
2019-02-10T23:46:16.677Z,6.65
2019-02-10T23:48:45.063Z,6.62
2019-02-10T23:51:13.468Z,6.60
2019-02-10T23:53:42.170Z,6.57
2019-02-10T23:56:10.564Z,6.54
2019-02-10T23:58:38.963Z,6.51
